createdAt,value
2022-11-05T00:00:23.562Z,958.87
2022-11-05T00:05:25.611Z,958.93
2022-11-05T00:10:27.136Z,958.94
2022-11-05T00:15:29.195Z,958.98
2022-11-05T00:20:30.936Z,959
2022-11-05T00:25:32.224Z,959.05
2022-11-05T00:30:34.166Z,959.11
2022-11-05T00:35:35.430Z,959.2
2022-11-05T00:40:36.673Z,959.27
2022-11-05T00:45:38.839Z,959.3
2022-11-05T00:50:40.798Z,959.32
2022-11-05T00:55:42.212Z,959.38
2022-11-05T01:00:44.420Z,959.36
2022-11-05T01:05:45.678Z,959.36
2022-11-05T01:10:47.054Z,959.35
2022-11-05T01:15:48.566Z,959.39
2022-11-05T01:20:50.093Z,959.41
2022-11-05T01:25:51.283Z,959.43
2022-11-05T01:30:53.670Z,959.5
2022-11-05T01:35:54.850Z,959.59
2022-11-05T01:40:56.800Z,959.55
2022-11-05T01:45:58.045Z,959.59
2022-11-05T01:50:59.416Z,959.62
2022-11-05T01:56:01.214Z,959.62
2022-11-05T02:01:03.158Z,959.57
2022-11-05T02:06:05.078Z,959.54
2022-11-05T02:11:06.412Z,959.55
2022-11-05T02:16:07.930Z,959.54
2022-11-05T02:21:09.258Z,959.54
2022-11-05T02:26:10.706Z,959.63
2022-11-05T02:31:12.517Z,959.71
2022-11-05T02:56:21.242Z,959.76
2022-11-05T03:01:22.967Z,959.79
2022-11-05T03:21:30.084Z,960.07
2022-11-05T03:26:31.973Z,960.22
2022-11-05T03:31:33.255Z,960.26
2022-11-05T03:36:35.220Z,960.33
2022-11-05T03:41:37.030Z,960.42
2022-11-05T03:46:38.378Z,960.57
2022-11-05T03:51:39.694Z,960.68
2022-11-05T04:06:45.114Z,960.8
2022-11-05T04:11:46.447Z,960.83
2022-11-05T04:16:48.399Z,960.9
2022-11-05T04:21:50.088Z,960.92
2022-11-05T04:26:51.651Z,960.88
2022-11-05T04:31:53.795Z,960.93
2022-11-05T04:36:55.044Z,960.95
2022-11-05T04:41:56.786Z,961.01
2022-11-05T04:46:58.493Z,961
2022-11-05T04:52:00.034Z,960.95
2022-11-05T04:57:01.269Z,961.02
2022-11-05T05:02:02.711Z,961.1
2022-11-05T05:07:03.945Z,961.12
2022-11-05T05:12:05.788Z,961.16
2022-11-05T05:17:08.024Z,961.18
2022-11-05T05:22:09.557Z,961.2
2022-11-05T05:27:10.839Z,961.25
2022-11-05T05:32:12.103Z,961.31
2022-11-05T05:37:13.579Z,961.4
2022-11-05T05:42:14.892Z,961.39
2022-11-05T05:47:16.542Z,961.39
2022-11-05T05:52:18.543Z,961.43
2022-11-05T05:57:20.495Z,961.46
2022-11-05T06:02:22.220Z,961.48
2022-11-05T06:07:23.785Z,961.49
2022-11-05T06:12:25.738Z,961.49
2022-11-05T06:17:27.481Z,961.61
2022-11-05T06:22:28.825Z,961.69
2022-11-05T06:27:30.797Z,961.76
2022-11-05T06:32:32.224Z,961.78
2022-11-05T06:37:34.205Z,961.91
2022-11-05T06:42:35.476Z,961.97
2022-11-05T06:47:36.764Z,962.12
2022-11-05T06:52:40.999Z,962.17
2022-11-05T06:57:39.974Z,962.25
2022-11-05T07:02:41.979Z,962.33
2022-11-05T07:07:43.595Z,962.4
2022-11-05T07:12:45.016Z,962.45
2022-11-05T07:17:46.549Z,962.45
2022-11-05T07:22:48.237Z,962.52
2022-11-05T07:27:49.566Z,962.6
2022-11-05T07:32:51.175Z,962.72
2022-11-05T07:37:52.556Z,962.72
2022-11-05T07:42:54.614Z,962.78
2022-11-05T07:47:56.938Z,962.8
2022-11-05T07:52:58.902Z,962.82
2022-11-05T07:58:00.752Z,962.82
2022-11-05T08:03:09.336Z,962.94
2022-11-05T08:08:04.176Z,962.99
2022-11-05T08:13:05.547Z,963
2022-11-05T08:18:07.066Z,962.95
2022-11-05T08:23:08.716Z,962.93
2022-11-05T08:28:10.240Z,963.05
2022-11-05T08:33:12.589Z,963.07
2022-11-05T08:38:13.976Z,963.07
2022-11-05T08:43:15.546Z,963.09
2022-11-05T08:48:17.077Z,963.07
2022-11-05T08:53:18.378Z,963.07
2022-11-05T08:58:19.707Z,963.11
2022-11-05T09:03:21.822Z,963.13
2022-11-05T09:08:23.463Z,963.22
2022-11-05T09:13:25.722Z,963.24
2022-11-05T09:18:27.544Z,963.23
2022-11-05T09:23:28.744Z,963.22
2022-11-05T09:28:30.436Z,963.25
2022-11-05T09:33:32.631Z,963.34
2022-11-05T09:38:33.987Z,963.36
2022-11-05T09:43:35.272Z,963.42
2022-11-05T09:48:36.766Z,963.5
2022-11-05T09:53:38.839Z,963.51
2022-11-05T09:58:40.234Z,963.5
2022-11-05T10:03:42.316Z,963.54
2022-11-05T10:08:44.117Z,963.56
2022-11-05T10:13:45.425Z,963.63
2022-11-05T10:18:46.654Z,963.61
2022-11-05T10:23:48.244Z,963.62
2022-11-05T10:28:49.520Z,963.62
2022-11-05T10:33:51.758Z,963.66
2022-11-05T10:38:53.681Z,963.68
2022-11-05T10:43:55.400Z,963.68
2022-11-05T10:48:57.081Z,963.68
2022-11-05T10:54:01.786Z,963.7
2022-11-05T10:59:00.234Z,963.72
2022-11-05T11:04:02.126Z,963.78
2022-11-05T11:09:03.369Z,963.79
2022-11-05T11:14:04.699Z,963.78
2022-11-05T11:19:06.739Z,963.74
2022-11-05T11:24:08.369Z,963.74
2022-11-05T11:29:09.916Z,963.79
2022-11-05T11:34:11.438Z,963.91
2022-11-05T11:39:12.920Z,963.9
2022-11-05T11:44:14.519Z,963.93
2022-11-05T11:49:15.826Z,963.98
2022-11-05T11:54:16.912Z,963.98
2022-11-05T11:59:18.107Z,963.93
2022-11-05T12:04:19.423Z,963.98
2022-11-05T12:09:20.875Z,964.01
2022-11-05T12:14:22.187Z,964
2022-11-05T12:19:24.021Z,964.04
2022-11-05T12:24:25.994Z,964.07
2022-11-05T12:29:30.144Z,964.07
2022-11-05T12:34:29.102Z,964.04
2022-11-05T12:39:30.978Z,964.06
2022-11-05T12:44:32.312Z,964.09
2022-11-05T12:49:34.065Z,964.12
2022-11-05T12:54:35.684Z,964.19
2022-11-05T12:59:37.324Z,964.21
2022-11-05T13:04:38.706Z,964.24
2022-11-05T13:09:40.211Z,964.27
2022-11-05T13:14:42.113Z,964.25
2022-11-05T13:19:44.093Z,964.26
2022-11-05T13:24:45.767Z,964.26
2022-11-05T13:29:47.347Z,964.3
2022-11-05T13:34:49.175Z,964.32
2022-11-05T13:39:50.710Z,964.32
2022-11-05T13:44:52.228Z,964.37
2022-11-05T13:49:54.327Z,964.42
2022-11-05T13:54:56.111Z,964.44
2022-11-05T13:59:58.123Z,964.46
2022-11-05T14:05:01.466Z,964.52
2022-11-05T14:10:01.985Z,964.56
2022-11-05T14:15:03.190Z,964.6
2022-11-05T14:20:05.099Z,964.61
2022-11-05T14:25:07.203Z,964.62
2022-11-05T14:30:08.524Z,964.62
2022-11-05T14:35:10.439Z,964.61
2022-11-05T14:40:12.327Z,964.66
2022-11-05T14:45:14.387Z,964.71
2022-11-05T14:50:16.569Z,964.71
2022-11-05T14:55:18.285Z,964.7
2022-11-05T15:00:19.610Z,964.79
2022-11-05T15:05:21.841Z,964.84
2022-11-05T15:10:22.969Z,964.83
2022-11-05T15:15:24.901Z,964.99
2022-11-05T15:20:26.922Z,965.02
2022-11-05T15:25:28.036Z,965.01
2022-11-05T15:30:29.321Z,965
2022-11-05T15:35:30.998Z,965.06
2022-11-05T15:35:37.320Z,965.07
2022-11-05T15:40:38.648Z,965.11
2022-11-05T15:45:40.573Z,965.16
2022-11-05T15:50:42.683Z,965.17
2022-11-05T15:55:44.701Z,965.2
2022-11-05T16:00:46.496Z,965.2
2022-11-05T16:05:48.581Z,965.2
2022-11-05T16:10:50.493Z,965.27
2022-11-05T16:15:52.289Z,965.31
2022-11-05T16:20:53.871Z,965.41
2022-11-05T16:25:55.810Z,965.48
2022-11-05T16:30:57.092Z,965.52
2022-11-05T16:35:58.415Z,965.6
2022-11-05T16:41:00.245Z,965.67
2022-11-05T16:46:01.798Z,965.73
2022-11-05T16:51:03.701Z,965.72
2022-11-05T16:56:05.518Z,965.76
2022-11-05T17:01:07.215Z,965.85
2022-11-05T17:06:08.671Z,965.93
2022-11-05T17:11:10.663Z,965.97
2022-11-05T17:16:11.966Z,966
2022-11-05T17:21:13.734Z,966.05
2022-11-05T17:56:33.708Z,966.39
2022-11-05T18:01:25.733Z,966.42
2022-11-05T18:06:27.353Z,966.45
2022-11-05T18:11:28.725Z,966.53
2022-11-05T18:26:34.231Z,966.69
2022-11-05T18:36:37.117Z,966.63
2022-11-05T18:41:38.435Z,966.64
2022-11-05T18:56:43.322Z,966.69
2022-11-05T19:01:44.754Z,966.74
2022-11-05T19:06:46.092Z,966.67
2022-11-05T19:11:48.219Z,966.62
2022-11-05T19:16:49.585Z,966.66
2022-11-05T19:21:51.200Z,966.75
2022-11-05T19:26:52.884Z,966.77
2022-11-05T19:31:54.261Z,966.77
2022-11-05T19:36:55.929Z,966.83
2022-11-05T19:42:03.083Z,966.85
2022-11-05T19:46:59.886Z,966.89
2022-11-05T19:52:01.276Z,966.94
2022-11-05T19:57:02.509Z,966.92
2022-11-05T20:02:04.718Z,966.92
2022-11-05T20:07:06.148Z,966.94
2022-11-05T20:12:07.963Z,966.92
2022-11-05T20:17:09.707Z,966.93
2022-11-05T20:22:11.792Z,966.85
2022-11-05T20:27:13.649Z,966.89
2022-11-05T20:32:15.413Z,966.92
2022-11-05T20:37:16.926Z,967.03
2022-11-05T20:42:18.792Z,967.05
2022-11-05T20:47:20.528Z,967.1
2022-11-05T20:52:21.870Z,967.15
2022-11-05T20:57:23.274Z,967.17
2022-11-05T21:02:24.935Z,967.17
2022-11-05T21:07:26.627Z,967.24
2022-11-05T21:12:28.537Z,967.23
2022-11-05T21:17:29.891Z,967.17
2022-11-05T21:22:32.117Z,967.12
2022-11-05T21:27:33.451Z,967.06
2022-11-05T21:32:35.079Z,967.04
2022-11-05T21:37:36.440Z,967.05
2022-11-05T21:42:38.388Z,967.07
2022-11-05T21:47:40.285Z,967.11
2022-11-05T21:52:41.818Z,967.13
2022-11-05T21:57:43.858Z,967.09
2022-11-05T22:02:46.065Z,967.04
2022-11-05T22:07:47.114Z,967.07
2022-11-05T22:12:49.040Z,967.12
2022-11-05T22:17:50.649Z,967.11
2022-11-05T22:22:52.356Z,967.14
2022-11-05T22:27:54.104Z,967.22
2022-11-05T22:32:56.219Z,967.31
2022-11-05T22:37:57.443Z,967.27
2022-11-05T22:42:59.146Z,967.3
2022-11-05T22:48:03.747Z,967.28
2022-11-05T22:53:02.631Z,967.25
2022-11-05T22:58:04.578Z,967.28
2022-11-05T23:13:09.950Z,967.12
2022-11-05T23:18:11.585Z,967.11
2022-11-05T23:23:12.699Z,967.08
2022-11-05T23:28:14.733Z,967.04
2022-11-05T23:33:15.853Z,967.04
2022-11-05T23:38:17.637Z,966.94
2022-11-05T23:43:19.585Z,967.05
2022-11-05T23:48:21.455Z,967.03
2022-11-05T23:53:22.649Z,967.09
2022-11-05T23:58:24.844Z,967.13
